createdAt,value
2018-10-21T00:00:10.445Z,80.10
2018-10-21T00:01:10.429Z,79.62
2018-10-21T00:02:10.467Z,79.62
2018-10-21T00:03:10.473Z,79.05
2018-10-21T00:04:10.337Z,79.52
2018-10-21T00:05:10.312Z,79.33
2018-10-21T00:06:10.291Z,78.77
2018-10-21T00:07:10.255Z,79.33
2018-10-21T00:08:10.239Z,79.33
2018-10-21T00:09:10.230Z,79.05
2018-10-21T00:10:10.177Z,79.43
2018-10-21T00:11:10.148Z,79.43
2018-10-21T00:12:10.124Z,79.52
2018-10-21T00:13:10.101Z,79.43
2018-10-21T00:14:10.072Z,79.43
2018-10-21T00:15:10.083Z,79.43
2018-10-21T00:16:10.014Z,80.10
2018-10-21T00:17:09.983Z,79.81
2018-10-21T00:18:09.965Z,80.19
2018-10-21T00:19:09.935Z,80.10
2018-10-21T00:20:09.906Z,80.00
2018-10-21T00:21:09.930Z,79.81
2018-10-21T00:22:09.850Z,80.00
2018-10-21T00:23:09.830Z,80.00
2018-10-21T00:24:09.798Z,80.47
2018-10-21T00:25:09.768Z,80.47
2018-10-21T00:26:09.738Z,80.95
2018-10-21T00:27:09.754Z,80.95
2018-10-21T00:28:09.689Z,80.66
2018-10-21T00:29:09.663Z,80.95
2018-10-21T00:30:09.652Z,80.95
2018-10-21T00:31:09.605Z,80.57
2018-10-21T00:32:09.577Z,80.29
2018-10-21T00:33:09.633Z,80.47
2018-10-21T00:34:09.530Z,80.00
2018-10-21T00:35:09.501Z,79.52
2018-10-21T00:36:09.472Z,80.47
2018-10-21T00:37:09.448Z,80.57
2018-10-21T00:38:09.414Z,80.47
2018-10-21T00:39:09.450Z,80.38
2018-10-21T00:40:09.364Z,81.05
2018-10-21T00:41:09.337Z,80.76
2018-10-21T00:42:09.325Z,80.66
2018-10-21T00:43:09.283Z,80.95
2018-10-21T00:44:09.251Z,81.52
2018-10-21T00:45:09.325Z,81.52
2018-10-21T00:46:09.202Z,81.33
2018-10-21T00:47:09.176Z,81.62
2018-10-21T00:48:09.145Z,81.71
2018-10-21T00:49:09.121Z,81.71
2018-10-21T00:50:09.087Z,81.52
2018-10-21T00:51:09.104Z,81.90
2018-10-21T00:52:09.037Z,81.52
2018-10-21T00:53:09.008Z,81.24
2018-10-21T00:54:08.990Z,81.62
2018-10-21T00:55:08.957Z,81.71
2018-10-21T00:56:08.926Z,81.33
2018-10-21T00:57:08.913Z,80.76
2018-10-21T00:58:08.873Z,80.95
2018-10-21T00:59:08.850Z,81.14
2018-10-21T01:00:08.814Z,80.76
2018-10-21T01:01:08.797Z,80.76
2018-10-21T01:02:08.762Z,80.86
2018-10-21T01:03:08.795Z,80.76
2018-10-21T01:04:08.748Z,80.19
2018-10-21T01:05:08.678Z,80.24
2018-10-21T01:06:08.661Z,80.29
2018-10-21T01:07:08.628Z,80.29
2018-10-21T01:08:08.598Z,80.47
2018-10-21T01:09:08.764Z,80.10
2018-10-21T01:10:08.544Z,80.05
2018-10-21T01:11:08.516Z,80.29
2018-10-21T01:12:08.492Z,79.86
2018-10-21T01:13:08.465Z,79.81
2018-10-21T01:14:08.437Z,79.30
2018-10-21T01:15:08.444Z,79.14
2018-10-21T01:16:08.380Z,79.43
2018-10-21T01:17:08.353Z,79.52
2018-10-21T01:18:08.328Z,79.14
2018-10-21T01:19:08.311Z,79.33
2018-10-21T01:20:08.274Z,78.91
2018-10-21T01:21:08.290Z,79.14
2018-10-21T01:22:08.229Z,78.67
2018-10-21T01:23:08.199Z,78.57
2018-10-21T01:24:08.161Z,78.86
2018-10-21T01:25:08.139Z,78.86
2018-10-21T01:26:08.109Z,78.57
2018-10-21T01:27:08.130Z,78.96
2018-10-21T01:28:08.080Z,79.24
2018-10-21T01:29:08.032Z,79.05
2018-10-21T01:30:08.000Z,79.11
2018-10-21T01:31:07.978Z,79.24
2018-10-21T01:32:07.940Z,79.43
2018-10-21T01:33:07.919Z,79.52
2018-10-21T01:34:07.896Z,79.43
2018-10-21T01:35:07.861Z,79.43
2018-10-21T01:36:07.866Z,79.20
2018-10-21T01:37:07.828Z,79.49
2018-10-21T01:38:07.856Z,79.52
2018-10-21T01:39:07.761Z,79.30
2018-10-21T01:40:07.746Z,79.30
2018-10-21T01:41:07.706Z,79.20
2018-10-21T01:42:07.669Z,79.20
2018-10-21T01:43:07.655Z,79.30
2018-10-21T01:44:07.616Z,79.39
2018-10-21T01:45:07.644Z,79.58
2018-10-21T01:46:07.562Z,79.01
2018-10-21T01:47:07.536Z,79.01
2018-10-21T01:48:07.518Z,79.11
2018-10-21T01:49:07.481Z,79.01
2018-10-21T01:50:07.456Z,78.82
2018-10-21T01:51:07.439Z,78.34
2018-10-21T01:52:07.397Z,78.63
2018-10-21T01:53:07.383Z,78.44
2018-10-21T01:54:07.347Z,78.44
2018-10-21T01:55:07.317Z,78.82
2018-10-21T01:56:07.287Z,78.34
2018-10-21T01:57:07.318Z,79.01
2018-10-21T01:58:07.244Z,79.11
2018-10-21T01:59:07.208Z,79.30
2018-10-21T02:00:07.187Z,79.49
2018-10-21T02:01:07.155Z,79.49
2018-10-21T02:02:07.132Z,79.20
2018-10-21T02:03:07.152Z,79.39
2018-10-21T02:04:07.075Z,79.39
2018-10-21T02:05:07.045Z,79.30
2018-10-21T02:06:07.026Z,79.20
2018-10-21T02:07:06.992Z,79.49
2018-10-21T02:08:06.967Z,79.49
2018-10-21T02:09:06.970Z,79.39
2018-10-21T02:10:06.908Z,79.49
2018-10-21T02:11:06.886Z,79.49
2018-10-21T02:12:06.852Z,79.58
2018-10-21T02:13:06.857Z,79.01
2018-10-21T02:14:06.854Z,79.49
2018-10-21T02:15:06.808Z,79.49
2018-10-21T02:16:06.741Z,79.30
2018-10-21T02:17:06.719Z,79.39
2018-10-21T02:18:06.695Z,79.86
2018-10-21T02:19:06.660Z,79.96
2018-10-21T02:20:06.640Z,79.96
2018-10-21T02:21:06.652Z,79.86
2018-10-21T02:22:06.584Z,79.86
2018-10-21T02:23:06.567Z,79.77
2018-10-21T02:24:06.527Z,79.77
2018-10-21T02:25:06.504Z,80.34
2018-10-21T02:26:06.499Z,80.53
2018-10-21T02:27:06.467Z,80.34
2018-10-21T02:28:06.431Z,80.53
2018-10-21T02:29:06.394Z,79.96
2018-10-21T02:30:06.364Z,79.96
2018-10-21T02:31:06.333Z,80.05
2018-10-21T02:32:06.317Z,80.05
2018-10-21T02:33:06.347Z,80.34
2018-10-21T02:34:06.250Z,79.96
2018-10-21T02:35:06.224Z,79.86
2018-10-21T02:36:06.205Z,79.86
2018-10-21T02:37:06.177Z,79.49
2018-10-21T02:38:06.142Z,79.30
2018-10-21T02:39:06.189Z,79.39
2018-10-21T02:40:06.094Z,79.49
2018-10-21T02:41:06.077Z,79.20
2018-10-21T02:42:06.039Z,79.39
2018-10-21T02:43:06.012Z,79.30
2018-10-21T02:44:05.994Z,79.30
2018-10-21T02:45:06.022Z,79.30
2018-10-21T02:46:05.922Z,79.20
2018-10-21T02:47:05.902Z,79.01
2018-10-21T02:48:05.872Z,79.58
2018-10-21T02:49:05.861Z,79.01
2018-10-21T02:50:05.815Z,78.44
2018-10-21T02:51:05.841Z,78.25
2018-10-21T02:52:05.760Z,78.44
2018-10-21T02:53:05.743Z,78.34
2018-10-21T02:54:05.704Z,78.16
2018-10-21T02:55:05.685Z,78.06
2018-10-21T02:56:05.650Z,78.16
2018-10-21T02:57:05.671Z,78.06
2018-10-21T02:58:05.600Z,78.72
2018-10-21T02:59:05.576Z,78.06
2018-10-21T03:00:05.545Z,78.06
2018-10-21T03:01:05.514Z,78.25
2018-10-21T03:02:05.488Z,78.72
2018-10-21T03:03:05.481Z,78.16
2018-10-21T03:04:05.433Z,78.44
2018-10-21T03:05:05.411Z,78.82
2018-10-21T03:06:05.377Z,78.53
2018-10-21T03:07:05.359Z,78.72
2018-10-21T03:08:05.322Z,78.44
2018-10-21T03:09:05.322Z,78.25
2018-10-21T03:10:05.268Z,78.63
2018-10-21T03:11:05.245Z,78.53
2018-10-21T03:12:05.213Z,78.16
2018-10-21T03:13:05.194Z,77.68
2018-10-21T03:14:05.160Z,77.58
2018-10-21T03:15:05.170Z,78.16
2018-10-21T03:16:05.107Z,78.44
2018-10-21T03:17:05.081Z,78.25
2018-10-21T03:18:05.051Z,78.63
2018-10-21T03:19:05.024Z,78.53
2018-10-21T03:20:05.077Z,78.16
2018-10-21T03:21:05.065Z,78.72
2018-10-21T03:22:04.939Z,79.01
2018-10-21T03:23:04.913Z,79.01
2018-10-21T03:24:04.900Z,78.63
2018-10-21T03:25:04.864Z,78.44
2018-10-21T03:26:04.832Z,78.72
2018-10-21T03:27:04.860Z,78.82
2018-10-21T03:28:04.783Z,78.53
2018-10-21T03:29:04.749Z,78.44
2018-10-21T03:30:04.721Z,77.77
2018-10-21T03:31:04.695Z,77.39
2018-10-21T03:32:04.671Z,77.68
2018-10-21T03:33:04.737Z,77.11
2018-10-21T03:34:04.831Z,77.39
2018-10-21T03:35:04.588Z,77.30
2018-10-21T03:36:04.574Z,77.01
2018-10-21T03:37:04.529Z,76.92
2018-10-21T03:38:04.506Z,77.01
2018-10-21T03:39:04.520Z,76.92
2018-10-21T03:40:04.495Z,76.44
2018-10-21T03:41:04.418Z,76.06
2018-10-21T03:42:04.398Z,76.06
2018-10-21T03:43:04.370Z,75.78
2018-10-21T03:44:04.338Z,75.68
2018-10-21T03:45:04.324Z,75.59
2018-10-21T03:46:04.316Z,75.21
2018-10-21T03:47:04.257Z,75.78
2018-10-21T03:48:04.242Z,75.40
2018-10-21T03:49:04.203Z,75.68
2018-10-21T03:50:04.172Z,75.78
2018-10-21T03:51:04.152Z,75.59
2018-10-21T03:52:04.138Z,75.40
2018-10-21T03:53:04.088Z,75.68
2018-10-21T03:54:04.072Z,75.59
2018-10-21T03:55:04.043Z,75.68
2018-10-21T03:56:04.008Z,76.06
2018-10-21T03:57:03.984Z,75.96
2018-10-21T03:58:04.021Z,75.96
2018-10-21T03:59:03.937Z,76.35
2018-10-21T04:00:03.899Z,76.16
2018-10-21T04:01:03.872Z,77.20
2018-10-21T04:02:03.848Z,76.73
2018-10-21T04:03:03.819Z,77.11
2018-10-21T04:04:03.826Z,76.06
2018-10-21T04:05:03.762Z,76.25
2018-10-21T04:06:03.736Z,76.73
2018-10-21T04:07:03.709Z,77.17
2018-10-21T04:08:03.686Z,77.20
2018-10-21T04:09:03.654Z,76.73
2018-10-21T04:10:03.659Z,76.54
2018-10-21T04:11:03.601Z,76.12
2018-10-21T04:12:03.574Z,76.16
2018-10-21T04:13:03.541Z,76.06
2018-10-21T04:14:03.522Z,76.16
2018-10-21T04:15:03.487Z,76.82
2018-10-21T04:16:03.537Z,76.82
2018-10-21T04:17:03.432Z,77.11
2018-10-21T04:18:03.408Z,77.49
2018-10-21T04:19:03.384Z,77.30
2018-10-21T04:20:03.352Z,78.16
2018-10-21T04:21:03.330Z,77.07
2018-10-21T04:22:03.345Z,77.26
2018-10-21T04:23:03.270Z,77.39
2018-10-21T04:24:03.243Z,77.20
2018-10-21T04:25:03.217Z,77.39
2018-10-21T04:26:03.189Z,77.01
2018-10-21T04:27:03.166Z,76.78
2018-10-21T04:28:03.204Z,76.40
2018-10-21T04:29:03.111Z,75.96
2018-10-21T04:30:03.076Z,75.68
2018-10-21T04:31:03.063Z,75.55
2018-10-21T04:32:03.021Z,75.40
2018-10-21T04:33:02.995Z,75.40
2018-10-21T04:34:03.006Z,75.30
2018-10-21T04:35:02.940Z,75.45
2018-10-21T04:36:02.917Z,75.40
2018-10-21T04:37:02.910Z,74.82
2018-10-21T04:38:02.860Z,74.88
2018-10-21T04:39:02.836Z,75.21
2018-10-21T04:40:02.869Z,74.82
2018-10-21T04:41:02.773Z,75.45
2018-10-21T04:42:02.756Z,75.55
2018-10-21T04:43:02.721Z,75.59
2018-10-21T04:44:02.700Z,75.93
2018-10-21T04:45:02.672Z,76.16
2018-10-21T04:46:02.656Z,75.93
2018-10-21T04:47:02.795Z,75.93
2018-10-21T04:48:02.588Z,75.84
2018-10-21T04:49:02.565Z,76.03
2018-10-21T04:50:02.532Z,75.93
2018-10-21T04:51:02.505Z,76.03
2018-10-21T04:52:02.551Z,76.50
2018-10-21T04:53:02.452Z,76.40
2018-10-21T04:54:02.421Z,76.16
2018-10-21T04:55:02.399Z,76.31
2018-10-21T04:56:02.376Z,76.31
2018-10-21T04:57:02.343Z,76.12
2018-10-21T04:58:02.354Z,76.21
2018-10-21T04:59:02.283Z,76.40
2018-10-21T05:00:02.260Z,76.59
2018-10-21T05:01:02.231Z,76.69
2018-10-21T05:02:02.201Z,76.03
2018-10-21T05:03:02.176Z,76.50
2018-10-21T05:04:02.163Z,75.93
2018-10-21T05:05:02.119Z,76.50
2018-10-21T05:06:02.097Z,75.36
2018-10-21T05:07:02.066Z,75.74
2018-10-21T05:08:02.037Z,75.36
2018-10-21T05:09:02.010Z,75.55
2018-10-21T05:10:02.016Z,75.55
2018-10-21T05:11:01.960Z,75.74
2018-10-21T05:12:01.926Z,75.55
2018-10-21T05:13:01.907Z,76.03
2018-10-21T05:14:01.875Z,76.03
2018-10-21T05:15:01.880Z,76.03
2018-10-21T05:16:01.896Z,75.55
2018-10-21T05:17:01.797Z,75.93
2018-10-21T05:18:01.760Z,76.31
2018-10-21T05:19:01.736Z,76.03
2018-10-21T05:20:01.712Z,76.12
2018-10-21T05:21:01.686Z,76.21
2018-10-21T05:22:01.704Z,76.50
2018-10-21T05:23:01.631Z,76.50
2018-10-21T05:24:01.724Z,76.40
2018-10-21T05:25:01.576Z,76.40
2018-10-21T05:26:01.544Z,76.31
2018-10-21T05:27:01.516Z,76.21
2018-10-21T05:28:01.568Z,76.21
2018-10-21T05:29:01.473Z,75.93
2018-10-21T05:30:01.438Z,75.84
2018-10-21T05:31:01.408Z,75.26
2018-10-21T05:32:01.393Z,75.36
2018-10-21T05:33:01.348Z,75.07
2018-10-21T05:34:01.362Z,74.88
2018-10-21T05:35:01.296Z,75.36
2018-10-21T05:36:01.275Z,75.55
2018-10-21T05:37:01.245Z,75.36
2018-10-21T05:38:01.316Z,75.45
2018-10-21T05:39:01.187Z,75.55
2018-10-21T05:40:01.202Z,75.36
2018-10-21T05:41:01.139Z,75.74
2018-10-21T05:42:01.107Z,75.74
2018-10-21T05:43:01.082Z,75.55
2018-10-21T05:44:01.060Z,75.36
2018-10-21T05:45:01.022Z,75.45
2018-10-21T05:46:01.010Z,75.36
2018-10-21T05:47:00.974Z,75.64
2018-10-21T05:48:00.944Z,74.98
2018-10-21T05:49:00.913Z,74.60
2018-10-21T05:50:00.910Z,74.98
2018-10-21T05:51:00.859Z,74.88
2018-10-21T05:52:00.837Z,74.98
2018-10-21T05:53:00.811Z,75.17
2018-10-21T05:54:00.779Z,75.07
2018-10-21T05:55:00.748Z,74.22
2018-10-21T05:56:00.724Z,74.12
2018-10-21T05:57:00.692Z,74.41
2018-10-21T05:58:00.765Z,73.84
2018-10-21T05:59:00.637Z,73.84
2018-10-21T06:00:00.619Z,74.51
2018-10-21T06:01:00.590Z,74.22
2018-10-21T06:02:00.552Z,74.22
2018-10-21T06:03:00.609Z,74.03
2018-10-21T06:04:00.539Z,73.55
2018-10-21T06:05:00.478Z,73.46
2018-10-21T06:06:00.446Z,73.65
2018-10-21T06:07:00.416Z,73.65
2018-10-21T06:08:00.398Z,73.08
2018-10-21T06:09:00.367Z,72.89
2018-10-21T06:10:00.350Z,72.89
2018-10-21T06:11:00.307Z,72.60
2018-10-21T06:12:00.287Z,72.13
2018-10-21T06:13:00.260Z,72.22
2018-10-21T06:14:00.226Z,72.32
2018-10-21T06:15:00.305Z,72.13
2018-10-21T06:16:00.333Z,72.70
2018-10-21T06:17:00.151Z,72.32
2018-10-21T06:18:00.116Z,72.83
2018-10-21T06:19:00.093Z,72.60
2018-10-21T06:20:00.117Z,72.79
2018-10-21T06:21:00.041Z,73.21
2018-10-21T06:22:00.032Z,73.36
2018-10-21T06:22:59.980Z,73.65
2018-10-21T06:23:59.956Z,73.55
2018-10-21T06:24:59.931Z,74.22
2018-10-21T06:25:59.899Z,73.93
2018-10-21T06:26:59.875Z,74.31
2018-10-21T06:27:59.845Z,74.98
2018-10-21T06:28:59.822Z,75.17
2018-10-21T06:29:59.787Z,74.69
2018-10-21T06:30:59.762Z,74.79
2018-10-21T06:31:59.738Z,75.07
2018-10-21T06:32:59.753Z,75.07
2018-10-21T06:33:59.692Z,74.69
2018-10-21T06:34:59.655Z,75.07
2018-10-21T06:35:59.625Z,75.07
2018-10-21T06:36:59.594Z,74.41
2018-10-21T06:37:59.575Z,74.44
2018-10-21T06:38:59.599Z,74.69
2018-10-21T06:39:59.543Z,74.44
2018-10-21T06:40:59.562Z,74.69
2018-10-21T06:41:59.457Z,74.26
2018-10-21T06:42:59.437Z,74.60
2018-10-21T06:43:59.402Z,74.26
2018-10-21T06:44:59.394Z,74.16
2018-10-21T06:45:59.352Z,73.93
2018-10-21T06:46:59.323Z,73.97
2018-10-21T06:47:59.296Z,74.44
2018-10-21T06:48:59.267Z,73.88
2018-10-21T06:49:59.238Z,73.97
2018-10-21T06:50:59.261Z,73.97
2018-10-21T06:51:59.182Z,73.59
2018-10-21T06:52:59.180Z,73.69
2018-10-21T06:53:59.128Z,73.40
2018-10-21T06:54:59.108Z,73.40
2018-10-21T06:55:59.071Z,73.69
2018-10-21T06:56:59.149Z,73.21
2018-10-21T06:57:59.020Z,73.40
2018-10-21T06:58:58.992Z,73.11
2018-10-21T06:59:58.967Z,72.74
2018-10-21T07:00:59.009Z,72.83
2018-10-21T07:01:59.119Z,73.11
2018-10-21T07:02:58.886Z,72.45
2018-10-21T07:03:58.917Z,72.45
2018-10-21T07:04:58.874Z,71.78
2018-10-21T07:05:58.805Z,72.16
2018-10-21T07:06:58.781Z,71.59
2018-10-21T07:07:58.742Z,71.41
2018-10-21T07:08:58.716Z,70.93
2018-10-21T07:09:58.727Z,70.93
2018-10-21T07:10:58.666Z,70.64
2018-10-21T07:11:58.643Z,70.45
2018-10-21T07:12:58.614Z,69.98
2018-10-21T07:13:58.580Z,70.45
2018-10-21T07:14:58.550Z,69.79
2018-10-21T07:15:58.596Z,69.79
2018-10-21T07:16:58.521Z,69.79
2018-10-21T07:17:58.488Z,69.41
2018-10-21T07:18:58.461Z,69.02
2018-10-21T07:19:58.425Z,69.12
2018-10-21T07:20:58.394Z,68.74
2018-10-21T07:21:58.415Z,69.02
2018-10-21T07:22:58.340Z,69.21
2018-10-21T07:23:58.307Z,69.31
2018-10-21T07:24:58.306Z,68.93
2018-10-21T07:25:58.250Z,68.93
2018-10-21T07:26:58.229Z,68.46
2018-10-21T07:27:58.269Z,68.27
2018-10-21T07:28:58.168Z,68.65
2018-10-21T07:29:58.141Z,68.36
2018-10-21T07:30:58.115Z,68.17
2018-10-21T07:31:58.095Z,67.98
2018-10-21T07:32:58.064Z,67.88
2018-10-21T07:33:58.089Z,67.79
2018-10-21T07:34:58.013Z,67.13
2018-10-21T07:35:57.982Z,67.41
2018-10-21T07:36:57.962Z,67.16
2018-10-21T07:37:57.927Z,67.44
2018-10-21T07:38:57.898Z,67.16
2018-10-21T07:39:57.881Z,67.25
2018-10-21T07:40:57.848Z,67.16
2018-10-21T07:41:57.821Z,66.97
2018-10-21T07:42:57.784Z,67.63
2018-10-21T07:43:57.764Z,66.87
2018-10-21T07:44:57.736Z,66.49
2018-10-21T07:45:57.742Z,67.16
2018-10-21T07:46:57.674Z,66.68
2018-10-21T07:47:57.660Z,66.49
2018-10-21T07:48:57.665Z,66.39
2018-10-21T07:49:57.599Z,66.68
2018-10-21T07:50:57.599Z,66.68
2018-10-21T07:51:57.585Z,66.30
2018-10-21T07:52:57.519Z,66.59
2018-10-21T07:53:57.488Z,66.49
2018-10-21T07:54:57.471Z,66.20
2018-10-21T07:55:57.431Z,66.39
2018-10-21T07:56:57.411Z,66.39
2018-10-21T07:57:57.408Z,65.92
2018-10-21T07:58:57.355Z,66.11
2018-10-21T07:59:57.318Z,65.73
2018-10-21T08:00:57.338Z,65.73
2018-10-21T08:01:57.274Z,65.64
2018-10-21T08:02:57.243Z,66.02
2018-10-21T08:03:57.219Z,65.73
2018-10-21T08:04:57.185Z,65.73
2018-10-21T08:05:57.170Z,65.92
2018-10-21T08:06:57.138Z,65.64
2018-10-21T08:07:57.114Z,65.29
2018-10-21T08:08:57.115Z,65.10
2018-10-21T08:09:57.090Z,64.81
2018-10-21T08:10:57.029Z,64.62
2018-10-21T08:11:56.992Z,64.43
2018-10-21T08:12:56.965Z,64.24
2018-10-21T08:13:56.947Z,64.62
2018-10-21T08:14:56.919Z,64.24
2018-10-21T08:15:56.891Z,64.43
2018-10-21T08:16:56.858Z,64.72
2018-10-21T08:17:56.842Z,64.43
2018-10-21T08:18:56.823Z,64.15
2018-10-21T08:19:56.785Z,64.05
2018-10-21T08:20:56.752Z,64.53
2018-10-21T08:21:56.730Z,64.24
2018-10-21T08:22:56.704Z,63.76
2018-10-21T08:23:56.672Z,64.05
2018-10-21T08:24:56.655Z,63.57
2018-10-21T08:25:56.615Z,63.67
2018-10-21T08:26:56.597Z,63.96
2018-10-21T08:27:56.596Z,63.96
2018-10-21T08:28:56.578Z,64.15
2018-10-21T08:29:56.504Z,64.18
2018-10-21T08:30:56.487Z,63.89
2018-10-21T08:31:56.455Z,63.99
2018-10-21T08:32:56.432Z,64.08
2018-10-21T08:33:56.415Z,64.56
2018-10-21T08:34:56.372Z,64.28
2018-10-21T08:35:56.408Z,64.47
2018-10-21T08:36:56.316Z,64.56
2018-10-21T08:37:56.301Z,65.03
2018-10-21T08:38:56.269Z,65.32
2018-10-21T08:39:56.251Z,65.99
2018-10-21T08:40:56.208Z,66.18
2018-10-21T08:41:56.187Z,66.56
2018-10-21T08:42:56.160Z,66.37
2018-10-21T08:43:56.130Z,66.85
2018-10-21T08:44:56.121Z,66.56
2018-10-21T08:45:56.142Z,67.61
2018-10-21T08:46:56.044Z,67.35
2018-10-21T08:47:56.025Z,68.02
2018-10-21T08:48:56.036Z,67.93
2018-10-21T08:49:56.032Z,67.83
2018-10-21T08:50:55.942Z,68.12
2018-10-21T08:51:55.951Z,67.83
2018-10-21T08:52:55.892Z,68.12
2018-10-21T08:53:55.860Z,68.69
2018-10-21T08:54:55.901Z,68.40
2018-10-21T08:55:55.838Z,69.26
2018-10-21T08:56:55.862Z,69.17
2018-10-21T08:57:55.757Z,68.98
2018-10-21T08:58:55.723Z,69.74
2018-10-21T08:59:55.697Z,70.02
2018-10-21T09:00:55.688Z,70.40
2018-10-21T09:01:55.657Z,77.11
2018-10-21T09:02:55.617Z,76.79
2018-10-21T09:03:55.596Z,75.78
2018-10-21T09:04:55.567Z,75.40
2018-10-21T09:05:55.542Z,74.92
2018-10-21T09:06:55.558Z,76.44
2018-10-21T09:07:55.481Z,76.35
2018-10-21T09:08:55.457Z,77.78
2018-10-21T09:09:55.466Z,78.83
2018-10-21T09:10:55.462Z,81.97
2018-10-21T09:11:55.374Z,81.12
2018-10-21T09:12:55.369Z,80.73
2018-10-21T09:13:55.346Z,81.78
2018-10-21T09:14:55.301Z,81.88
2018-10-21T09:15:55.331Z,82.11
2018-10-21T09:16:55.238Z,82.78
2018-10-21T09:17:55.217Z,82.20
2018-10-21T09:18:55.197Z,82.11
2018-10-21T09:19:55.167Z,82.01
2018-10-21T09:20:55.131Z,82.49
2018-10-21T09:21:55.114Z,83.25
2018-10-21T09:22:55.080Z,83.06
2018-10-21T09:23:55.201Z,82.49
2018-10-21T09:24:55.031Z,83.44
2018-10-21T09:25:55.002Z,83.73
2018-10-21T09:26:54.967Z,83.44
2018-10-21T09:27:54.953Z,83.44
2018-10-21T09:28:54.918Z,84.11
2018-10-21T09:29:54.894Z,84.11
2018-10-21T09:30:54.874Z,85.64
2018-10-21T09:31:54.838Z,85.64
2018-10-21T09:32:54.861Z,85.73
2018-10-21T09:33:54.814Z,85.97
2018-10-21T09:34:54.774Z,86.35
2018-10-21T09:35:54.734Z,87.49
2018-10-21T09:36:54.770Z,86.82
2018-10-21T09:37:54.689Z,87.30
2018-10-21T09:38:54.647Z,87.21
2018-10-21T09:39:54.652Z,88.07
2018-10-21T09:40:54.597Z,88.35
2018-10-21T09:41:54.573Z,88.26
2018-10-21T09:42:54.552Z,88.16
2018-10-21T09:43:54.520Z,89.78
2018-10-21T09:44:54.494Z,91.31
2018-10-21T09:45:54.471Z,89.88
2018-10-21T09:46:54.434Z,90.31
2018-10-21T09:47:54.415Z,90.31
2018-10-21T09:48:54.394Z,89.83
2018-10-21T09:49:54.393Z,90.11
2018-10-21T09:50:54.334Z,90.21
2018-10-21T09:51:54.308Z,89.92
2018-10-21T09:52:54.997Z,93.17
2018-10-21T09:53:54.247Z,95.27
2018-10-21T09:54:54.227Z,93.26
2018-10-21T09:55:54.207Z,92.41
2018-10-21T09:56:54.173Z,92.31
2018-10-21T09:57:54.146Z,93.84
2018-10-21T09:58:54.123Z,93.46
2018-10-21T09:59:54.098Z,93.74
2018-10-21T10:00:54.089Z,94.98
2018-10-21T10:01:54.037Z,96.22
2018-10-21T10:02:54.012Z,95.84
2018-10-21T10:03:54.072Z,95.75
2018-10-21T10:04:53.962Z,97.18
2018-10-21T10:05:53.933Z,96.56
2018-10-21T10:06:53.960Z,96.22
2018-10-21T10:07:53.885Z,97.27
2018-10-21T10:08:53.854Z,96.66
2018-10-21T10:09:53.858Z,96.37
2018-10-21T10:10:53.803Z,96.56
2018-10-21T10:11:53.775Z,97.23
2018-10-21T10:12:53.760Z,97.80
2018-10-21T10:13:53.718Z,97.52
2018-10-21T10:14:53.693Z,97.13
2018-10-21T10:15:53.671Z,96.75
2018-10-21T10:16:53.635Z,96.94
2018-10-21T10:17:53.619Z,97.99
2018-10-21T10:18:53.656Z,98.85
2018-10-21T10:19:53.566Z,97.71
2018-10-21T10:20:53.534Z,98.08
2018-10-21T10:21:53.539Z,97.61
2018-10-21T10:22:53.488Z,97.42
2018-10-21T10:23:53.542Z,97.80
2018-10-21T10:24:53.442Z,98.57
2018-10-21T10:25:53.399Z,97.89
2018-10-21T10:26:53.387Z,98.66
2018-10-21T10:27:53.353Z,98.66
2018-10-21T10:28:53.330Z,98.28
2018-10-21T10:29:53.300Z,98.08
2018-10-21T10:30:53.277Z,98.61
2018-10-21T10:31:53.245Z,98.33
2018-10-21T10:32:53.215Z,98.33
2018-10-21T10:33:53.193Z,98.23
2018-10-21T10:34:53.164Z,98.99
2018-10-21T10:35:53.144Z,98.23
2018-10-21T10:36:53.109Z,98.71
2018-10-21T10:37:53.100Z,98.52
2018-10-21T10:38:53.062Z,98.80
2018-10-21T10:39:53.052Z,98.71
2018-10-21T10:40:53.011Z,98.52
2018-10-21T10:41:53.055Z,98.23
2018-10-21T10:42:52.955Z,98.23
2018-10-21T10:43:52.932Z,98.23
2018-10-21T10:44:52.909Z,98.33
2018-10-21T10:45:52.881Z,98.71
2018-10-21T10:46:52.848Z,98.52
2018-10-21T10:47:52.824Z,98.61
2018-10-21T10:48:52.801Z,98.71
2018-10-21T10:49:52.771Z,97.56
2018-10-21T10:50:52.741Z,97.47
2018-10-21T10:51:52.721Z,98.13
2018-10-21T10:52:52.698Z,98.71
2018-10-21T10:53:52.661Z,98.23
2018-10-21T10:54:52.646Z,98.04
2018-10-21T10:55:52.616Z,98.80
2018-10-21T10:56:52.586Z,98.71
2018-10-21T10:57:52.565Z,98.80
2018-10-21T10:58:52.539Z,98.71
2018-10-21T10:59:52.601Z,98.52
2018-10-21T11:00:52.478Z,98.80
2018-10-21T11:01:52.459Z,98.80
2018-10-21T11:02:52.430Z,99.04
2018-10-21T11:03:52.402Z,98.75
2018-10-21T11:04:52.385Z,98.57
2018-10-21T11:05:52.346Z,98.75
2018-10-21T11:06:52.328Z,99.24
2018-10-21T11:07:52.291Z,98.75
2018-10-21T11:19:33.002Z,92.52
2018-10-21T11:31:56.990Z,59.94
2018-10-21T11:32:56.956Z,59.44
2018-10-21T11:34:49.852Z,62.71
2018-10-21T11:35:49.820Z,64.31
2018-10-21T11:37:42.732Z,69.74
2018-10-21T11:38:42.642Z,79.82
2018-10-21T11:40:35.635Z,74.98
2018-10-21T11:41:35.588Z,83.00
2018-10-21T11:43:28.480Z,91.63
2018-10-21T11:44:28.451Z,81.43
2018-10-21T11:46:21.397Z,84.68
2018-10-21T11:47:21.294Z,78.03
2018-10-21T11:49:14.266Z,87.51
2018-10-21T11:50:14.145Z,89.72
2018-10-21T11:51:14.120Z,86.65
2018-10-21T11:52:14.186Z,91.72
2018-10-21T11:53:14.076Z,92.11
2018-10-21T11:54:14.036Z,86.17
2018-10-21T11:55:14.101Z,87.99
2018-10-21T11:56:13.988Z,92.11
2018-10-21T11:57:13.965Z,93.50
2018-10-21T11:58:14.081Z,95.41
2018-10-21T11:59:13.982Z,94.79
2018-10-21T12:00:13.886Z,89.95
2018-10-21T12:01:13.925Z,85.27
2018-10-21T12:02:13.832Z,91.77
2018-10-21T12:03:13.869Z,94.65
2018-10-21T12:04:13.875Z,94.74
2018-10-21T12:05:13.759Z,92.54
2018-10-21T12:06:13.724Z,90.15
2018-10-21T12:07:13.761Z,85.94
2018-10-21T12:08:13.677Z,89.19
2018-10-21T12:09:13.697Z,88.43
2018-10-21T12:10:13.701Z,91.39
2018-10-21T12:11:13.594Z,92.06
2018-10-21T12:12:13.572Z,94.07
2018-10-21T12:13:13.624Z,87.47
2018-10-21T12:14:13.521Z,94.17
2018-10-21T12:15:13.493Z,89.95
2018-10-21T12:16:13.552Z,91.87
2018-10-21T12:17:13.441Z,90.72
2018-10-21T12:18:13.423Z,94.07
2018-10-21T12:19:13.592Z,92.83
2018-10-21T12:20:13.363Z,90.82
2018-10-21T12:21:13.340Z,92.83
2018-10-21T12:22:13.452Z,95.12
2018-10-21T12:23:13.481Z,90.82
2018-10-21T12:24:13.264Z,94.93
2018-10-21T12:25:13.369Z,93.50
2018-10-21T12:26:13.216Z,93.88
2018-10-21T12:27:13.181Z,88.62
2018-10-21T12:28:13.206Z,89.67
2018-10-21T12:29:13.231Z,87.66
2018-10-21T12:30:13.106Z,87.90
2018-10-21T12:31:13.108Z,85.98
2018-10-21T12:32:13.085Z,83.87
2018-10-21T12:33:13.021Z,85.60
2018-10-21T12:34:13.024Z,84.06
2018-10-21T12:35:13.124Z,83.87
2018-10-21T12:36:12.945Z,84.92
2018-10-21T12:37:12.997Z,88.66
2018-10-21T12:38:12.893Z,87.61
2018-10-21T12:39:12.875Z,90.58
2018-10-21T12:40:12.951Z,91.25
2018-10-21T12:41:12.900Z,93.35
2018-10-21T12:42:12.791Z,95.84
2018-10-21T12:43:12.799Z,93.16
2018-10-21T12:44:12.743Z,88.56
2018-10-21T12:45:12.743Z,88.47
2018-10-21T12:46:12.770Z,87.41
2018-10-21T12:47:12.674Z,85.60
2018-10-21T12:48:12.640Z,89.43
2018-10-21T12:49:12.702Z,84.74
2018-10-21T12:50:12.586Z,86.74
2018-10-21T12:51:12.563Z,82.73
2018-10-21T12:52:12.590Z,85.21
2018-10-21T12:53:12.658Z,84.06
2018-10-21T12:54:12.577Z,87.23
2018-10-21T12:55:12.556Z,85.41
2018-10-21T12:56:12.426Z,84.16
2018-10-21T12:57:12.407Z,82.92
2018-10-21T12:58:12.437Z,79.57
2018-10-21T12:59:12.356Z,83.49
2018-10-21T13:00:12.323Z,78.42
2018-10-21T13:01:12.378Z,75.73
2018-10-21T13:02:12.333Z,78.51
2018-10-21T13:03:12.269Z,78.99
2018-10-21T13:04:12.320Z,85.06
2018-10-21T13:05:12.200Z,92.30
2018-10-21T13:06:12.183Z,92.30
2018-10-21T13:07:12.264Z,89.90
2018-10-21T13:08:12.143Z,92.78
2018-10-21T13:09:12.091Z,95.27
2018-10-21T13:10:12.151Z,92.97
2018-10-21T13:11:12.041Z,93.93
2018-10-21T13:12:12.019Z,88.18
2018-10-21T13:13:11.995Z,79.85
2018-10-21T13:14:11.968Z,81.48
2018-10-21T13:15:11.933Z,84.83
2018-10-21T13:16:11.929Z,85.50
2018-10-21T13:17:11.889Z,80.24
2018-10-21T13:18:11.862Z,80.71
2018-10-21T13:19:11.953Z,74.52